createdAt,value
2022-10-02T00:02:09.896Z,15.97
2022-10-02T00:04:57.816Z,15.83
2022-10-02T00:07:31.485Z,15.88
2022-10-02T00:10:02.261Z,16.09
2022-10-02T00:12:30.987Z,16.57
2022-10-02T00:15:13.709Z,16.76
2022-10-02T00:17:43.011Z,16.54
2022-10-02T00:20:17.128Z,16.75
2022-10-02T00:22:53.805Z,16.98
2022-10-02T00:25:26.646Z,16.61
2022-10-02T00:28:12.671Z,16.76
2022-10-02T00:30:55.316Z,16.55
2022-10-02T00:33:32.424Z,16.47
2022-10-02T00:36:04.957Z,16.22
2022-10-02T00:38:51.658Z,16.70
2022-10-02T00:42:15.425Z,16.72
2022-10-02T00:44:49.766Z,16.13
2022-10-02T00:47:38.264Z,15.45
2022-10-02T00:50:53.749Z,15.56
2022-10-02T00:53:49.115Z,15.33
2022-10-02T00:56:37.917Z,14.95
2022-10-02T00:59:22.903Z,14.94
2022-10-02T01:02:04.922Z,15.00
2022-10-02T01:04:37.471Z,15.09
2022-10-02T01:07:07.388Z,15.09
2022-10-02T01:09:34.404Z,14.97
2022-10-02T01:12:01.554Z,15.12
2022-10-02T01:14:39.414Z,15.08
2022-10-02T01:17:08.126Z,15.24
2022-10-02T01:19:39.763Z,15.11
2022-10-02T01:22:30.557Z,15.37
2022-10-02T01:24:59.122Z,15.53
2022-10-02T01:27:27.013Z,15.66
2022-10-02T01:30:01.511Z,15.93
2022-10-02T01:32:29.455Z,16.13
2022-10-02T01:34:56.757Z,16.12
2022-10-02T01:37:27.481Z,15.99
2022-10-02T01:39:54.417Z,16.02
2022-10-02T01:42:21.769Z,15.77
2022-10-02T01:44:48.863Z,15.53
2022-10-02T01:47:20.035Z,15.51
2022-10-02T01:50:03.135Z,15.50
2022-10-02T01:52:48.369Z,15.53
2022-10-02T01:55:34.791Z,15.66
2022-10-02T01:58:16.822Z,15.70
2022-10-02T02:01:16.016Z,15.50
2022-10-02T02:03:54.627Z,15.27
2022-10-02T02:06:34.996Z,15.13
2022-10-02T02:09:19.154Z,15.12
2022-10-02T02:11:54.601Z,15.45
2022-10-02T02:14:27.245Z,15.46
2022-10-02T02:17:09.734Z,15.28
2022-10-02T02:19:49.420Z,15.68
2022-10-02T02:22:39.032Z,15.83
2022-10-02T02:25:26.694Z,15.64
2022-10-02T02:27:57.138Z,15.70
2022-10-02T02:30:24.596Z,15.47
2022-10-02T02:33:05.971Z,15.40
2022-10-02T02:35:45.670Z,15.46
2022-10-02T02:38:21.799Z,15.25
2022-10-02T02:40:49.021Z,15.11
2022-10-02T02:43:21.283Z,15.20
2022-10-02T02:45:54.240Z,15.28
2022-10-02T02:48:26.051Z,15.31
2022-10-02T02:51:01.938Z,15.21
2022-10-02T02:53:38.887Z,15.74
2022-10-02T02:56:09.039Z,15.57
2022-10-02T02:58:43.742Z,15.53
2022-10-02T03:01:10.894Z,15.69
2022-10-02T03:03:37.783Z,16.03
2022-10-02T03:06:27.270Z,15.99
2022-10-02T03:08:54.481Z,16.11
2022-10-02T03:11:24.033Z,15.99
2022-10-02T03:13:53.997Z,15.94
2022-10-02T03:16:30.213Z,15.84
2022-10-02T03:19:06.704Z,15.95
2022-10-02T03:21:42.383Z,15.80
2022-10-02T03:24:31.812Z,15.57
2022-10-02T03:27:14.239Z,15.52
2022-10-02T03:29:47.177Z,15.44
2022-10-02T03:32:15.758Z,15.45
2022-10-02T03:34:42.644Z,15.47
2022-10-02T03:37:09.512Z,15.28
2022-10-02T03:39:40.741Z,14.93
2022-10-02T03:42:10.546Z,14.95
2022-10-02T03:44:37.695Z,15.11
2022-10-02T03:47:04.593Z,15.02
2022-10-02T03:49:31.441Z,15.13
2022-10-02T03:51:58.274Z,15.31
2022-10-02T03:54:25.161Z,15.15
2022-10-02T03:56:57.069Z,15.21
2022-10-02T04:00:05.374Z,15.36
2022-10-02T04:02:40.967Z,15.12
2022-10-02T04:05:19.814Z,14.93
2022-10-02T04:07:52.824Z,14.83
2022-10-02T04:10:28.470Z,14.93
2022-10-02T04:13:03.302Z,14.82
2022-10-02T04:15:41.583Z,15.23
2022-10-02T04:18:12.151Z,15.35
2022-10-02T04:20:51.668Z,15.15
2022-10-02T04:23:26.659Z,15.20
2022-10-02T04:26:00.483Z,15.36
2022-10-02T04:28:32.844Z,15.07
2022-10-02T04:31:01.592Z,15.29
2022-10-02T04:33:28.809Z,15.54
2022-10-02T04:36:10.852Z,15.21
2022-10-02T04:38:55.657Z,15.55
2022-10-02T04:41:47.385Z,15.51
2022-10-02T04:44:24.059Z,15.55
2022-10-02T04:47:15.419Z,16.09
2022-10-02T04:50:00.597Z,16.14
2022-10-02T04:52:50.070Z,16.37
2022-10-02T04:55:35.600Z,16.70
2022-10-02T04:58:21.259Z,16.52
2022-10-02T05:01:11.939Z,16.94
2022-10-02T05:04:00.676Z,16.68
2022-10-02T05:07:06.354Z,16.28
2022-10-02T05:09:40.413Z,16.47
2022-10-02T05:12:44.920Z,16.96
2022-10-02T05:15:11.711Z,16.71
2022-10-02T05:18:07.877Z,16.61
2022-10-02T05:20:46.895Z,17.20
2022-10-02T05:23:52.670Z,16.77
2022-10-02T05:26:50.523Z,17.12
2022-10-02T05:29:35.706Z,18.05
2022-10-02T05:32:26.217Z,18.72
2022-10-02T05:35:25.150Z,19.53
2022-10-02T05:38:10.931Z,20.19
2022-10-02T05:40:45.659Z,20.22
2022-10-02T05:43:18.398Z,20.12
2022-10-02T05:46:24.383Z,20.12
2022-10-02T05:49:06.712Z,19.83
2022-10-02T05:51:40.013Z,19.90
2022-10-02T05:54:25.909Z,20.54
2022-10-02T05:56:58.973Z,21.71
2022-10-02T05:59:41.902Z,22.33
2022-10-02T06:02:39.126Z,23.27
2022-10-02T06:05:19.367Z,24.28
2022-10-02T06:07:48.112Z,25.06
2022-10-02T06:10:18.482Z,25.61
2022-10-02T06:12:55.265Z,25.28
2022-10-02T06:15:37.287Z,25.46
2022-10-02T06:18:10.762Z,25.89
2022-10-02T06:20:52.505Z,25.85
2022-10-02T06:23:23.231Z,25.98
2022-10-02T06:25:53.709Z,25.79
2022-10-02T06:28:22.320Z,23.42
2022-10-02T06:31:00.045Z,23.09
2022-10-02T06:33:29.660Z,24.24
2022-10-02T06:36:13.808Z,24.50
2022-10-02T06:38:43.232Z,23.15
2022-10-02T06:41:29.560Z,23.12
2022-10-02T06:44:08.532Z,22.92
2022-10-02T06:46:51.283Z,24.29
2022-10-02T06:49:50.094Z,24.97
2022-10-02T06:52:40.419Z,24.16
2022-10-02T06:55:13.210Z,24.23
2022-10-02T06:57:56.113Z,24.19
2022-10-02T07:00:23.050Z,26.69
2022-10-02T07:02:57.200Z,27.37
2022-10-02T07:05:45.767Z,27.03
2022-10-02T07:08:22.223Z,26.95
2022-10-02T07:11:07.544Z,25.95
2022-10-02T07:13:41.011Z,26.74
2022-10-02T07:16:39.554Z,25.30
2022-10-02T07:19:37.922Z,24.65
2022-10-02T07:22:43.417Z,24.67
2022-10-02T07:25:37.182Z,24.90
2022-10-02T07:28:39.882Z,24.08
2022-10-02T07:31:28.689Z,23.31
2022-10-02T07:34:21.351Z,22.80
2022-10-02T07:36:57.313Z,22.36
2022-10-02T07:39:32.882Z,22.08
2022-10-02T07:42:04.760Z,21.92
2022-10-02T07:44:52.468Z,22.40
2022-10-02T07:47:19.120Z,22.61
2022-10-02T07:49:52.263Z,22.08
2022-10-02T07:52:42.102Z,21.96
2022-10-02T07:55:22.624Z,21.87
2022-10-02T07:58:00.196Z,22.05
2022-10-02T08:00:30.455Z,22.34
2022-10-02T08:03:00.681Z,22.78
2022-10-02T08:05:37.201Z,22.29
2022-10-02T08:08:11.641Z,22.45
2022-10-02T08:10:40.923Z,22.33
2022-10-02T08:13:20.712Z,22.17
2022-10-02T08:15:52.882Z,22.18
2022-10-02T08:18:35.342Z,21.64
2022-10-02T08:21:04.939Z,21.67
2022-10-02T08:23:37.936Z,22.14
2022-10-02T08:26:10.260Z,22.47
2022-10-02T08:28:43.291Z,22.40
2022-10-02T08:31:12.111Z,21.52
2022-10-02T08:33:39.398Z,21.44
2022-10-02T08:36:16.651Z,21.18
2022-10-02T08:38:51.356Z,20.89
2022-10-02T08:41:32.761Z,20.68
2022-10-02T08:44:21.617Z,19.95
2022-10-02T08:47:07.440Z,20.92
2022-10-02T08:49:47.763Z,21.80
2022-10-02T08:53:16.163Z,21.53
2022-10-02T08:56:04.503Z,22.09
2022-10-02T08:58:46.536Z,22.99
2022-10-02T09:01:35.356Z,22.66
2022-10-02T09:04:13.182Z,22.78
2022-10-02T09:07:27.439Z,22.47
2022-10-02T09:09:55.061Z,21.95
2022-10-02T09:12:38.076Z,20.82
2022-10-02T09:15:19.460Z,20.62
2022-10-02T09:17:49.532Z,19.89
2022-10-02T09:20:28.486Z,19.60
2022-10-02T09:23:05.980Z,19.44
2022-10-02T09:25:56.066Z,19.30
2022-10-02T09:28:49.971Z,19.58
2022-10-02T09:31:35.293Z,19.72
2022-10-02T09:34:27.072Z,19.81
2022-10-02T09:37:16.360Z,20.10
2022-10-02T09:40:31.644Z,20.13
2022-10-02T09:42:58.459Z,19.73
2022-10-02T09:45:46.882Z,20.23
2022-10-02T09:48:31.593Z,20.19
2022-10-02T09:51:08.560Z,20.52
2022-10-02T09:54:12.131Z,20.24
2022-10-02T09:57:31.944Z,20.07
2022-10-02T10:00:31.418Z,19.99
2022-10-02T10:03:25.961Z,20.12
2022-10-02T10:06:30.074Z,20.03
2022-10-02T10:09:15.358Z,19.34
2022-10-02T10:11:55.385Z,18.65
2022-10-02T10:14:45.429Z,18.89
2022-10-02T10:17:48.530Z,19.30
2022-10-02T10:20:45.369Z,18.76
2022-10-02T10:23:37.116Z,19.23
2022-10-02T10:26:34.594Z,20.01
2022-10-02T10:29:22.320Z,19.89
2022-10-02T10:32:41.395Z,19.74
2022-10-02T10:35:45.680Z,19.81
2022-10-02T10:38:38.611Z,20.21
2022-10-02T10:41:37.775Z,20.64
2022-10-02T10:44:46.449Z,19.46
2022-10-02T10:47:40.206Z,19.27
2022-10-02T10:50:16.179Z,20.22
2022-10-02T10:52:42.969Z,19.27
2022-10-02T10:55:33.730Z,19.63
2022-10-02T10:58:21.495Z,19.00
2022-10-02T11:00:56.278Z,19.42
2022-10-02T11:03:42.005Z,20.34
2022-10-02T11:06:24.009Z,20.55
2022-10-02T11:09:28.706Z,19.77
2022-10-02T11:11:57.729Z,19.91
2022-10-02T11:14:41.257Z,20.03
2022-10-02T11:17:15.047Z,19.74
2022-10-02T11:19:54.263Z,20.08
2022-10-02T11:22:45.709Z,21.12
2022-10-02T11:25:23.055Z,21.14
2022-10-02T11:28:22.368Z,21.65
2022-10-02T11:31:25.930Z,21.26
2022-10-02T11:34:25.907Z,21.21
2022-10-02T11:37:31.728Z,20.70
2022-10-02T11:40:19.821Z,19.59
2022-10-02T11:43:02.355Z,19.43
2022-10-02T11:45:38.610Z,20.22
2022-10-02T11:48:12.837Z,20.78
2022-10-02T11:50:44.645Z,20.57
2022-10-02T11:53:29.477Z,20.28
2022-10-02T11:56:33.712Z,20.38
2022-10-02T11:59:38.275Z,20.28
2022-10-02T12:02:23.257Z,19.98
2022-10-02T12:05:04.162Z,20.21
2022-10-02T12:07:50.265Z,20.18
2022-10-02T12:10:33.897Z,19.75
2022-10-02T12:13:16.175Z,20.31
2022-10-02T12:15:56.020Z,20.18
2022-10-02T12:18:45.222Z,20.77
2022-10-02T12:21:55.502Z,20.62
2022-10-02T12:24:55.020Z,20.36
2022-10-02T12:27:22.373Z,20.38
2022-10-02T12:30:23.871Z,20.66
2022-10-02T12:33:11.700Z,20.80
2022-10-02T12:36:05.615Z,20.60
2022-10-02T12:38:54.395Z,19.90
2022-10-02T12:41:52.488Z,19.76
2022-10-02T12:44:32.272Z,20.07
2022-10-02T12:47:37.112Z,19.99
2022-10-02T12:50:37.545Z,19.67
2022-10-02T12:53:41.685Z,19.40
2022-10-02T12:56:14.376Z,19.36
2022-10-02T12:59:06.726Z,19.18
2022-10-02T13:02:11.970Z,19.18
2022-10-02T13:05:06.343Z,19.44
2022-10-02T13:08:18.408Z,19.63
2022-10-02T13:11:07.802Z,19.46
2022-10-02T13:13:52.867Z,19.81
2022-10-02T13:16:49.854Z,19.48
2022-10-02T13:19:43.745Z,19.61
2022-10-02T13:22:34.145Z,19.80
2022-10-02T13:25:25.507Z,19.91
2022-10-02T13:28:25.529Z,20.07
2022-10-02T13:31:08.123Z,19.72
2022-10-02T13:34:03.503Z,20.07
2022-10-02T13:37:01.603Z,19.85
2022-10-02T13:39:34.182Z,19.98
2022-10-02T13:42:27.758Z,20.50
2022-10-02T13:45:12.947Z,20.49
2022-10-02T13:47:53.273Z,20.43
2022-10-02T13:50:29.550Z,20.53
2022-10-02T13:53:19.725Z,20.98
2022-10-02T13:56:13.296Z,21.42
2022-10-02T13:58:54.234Z,21.35
2022-10-02T14:01:26.955Z,21.50
2022-10-02T14:04:11.028Z,21.69
2022-10-02T14:07:20.569Z,21.67
2022-10-02T14:10:19.776Z,21.59
2022-10-02T14:13:15.021Z,21.44
2022-10-02T14:16:09.790Z,20.81
2022-10-02T14:18:50.035Z,21.05
2022-10-02T14:21:31.216Z,20.64
2022-10-02T14:24:04.551Z,20.44
2022-10-02T14:27:03.393Z,20.37
2022-10-02T14:29:51.463Z,20.29
2022-10-02T14:32:38.404Z,20.57
2022-10-02T14:35:30.388Z,20.21
2022-10-02T14:38:04.947Z,20.20
2022-10-02T14:40:51.926Z,20.05
2022-10-02T14:43:33.718Z,20.12
2022-10-02T14:46:15.402Z,20.42
2022-10-02T14:49:05.946Z,20.11
2022-10-02T14:52:10.673Z,20.37
2022-10-02T14:55:02.174Z,20.24
2022-10-02T14:57:28.964Z,20.13
2022-10-02T15:00:05.643Z,20.33
2022-10-02T15:02:54.434Z,20.52
2022-10-02T15:05:47.858Z,20.98
2022-10-02T15:08:17.879Z,21.19
2022-10-02T15:10:45.493Z,21.36
2022-10-02T15:13:30.650Z,21.20
2022-10-02T15:16:28.293Z,21.18
2022-10-02T15:19:19.236Z,20.96
2022-10-02T15:21:47.194Z,21.62
2022-10-02T15:24:26.032Z,21.55
2022-10-02T15:27:14.606Z,21.45
2022-10-02T15:29:47.250Z,21.67
2022-10-02T15:32:55.621Z,21.67
2022-10-02T15:35:34.397Z,21.75
2022-10-02T15:38:11.221Z,21.75
2022-10-02T15:40:47.517Z,22.15
2022-10-02T15:43:17.318Z,22.06
2022-10-02T15:46:19.370Z,22.19
2022-10-02T15:49:22.293Z,22.40
2022-10-02T15:52:26.687Z,22.61
2022-10-02T15:55:16.025Z,22.43
2022-10-02T15:57:57.371Z,22.46
2022-10-02T16:00:27.389Z,21.34
2022-10-02T16:03:04.875Z,21.15
2022-10-02T16:05:57.480Z,21.50
2022-10-02T16:08:52.039Z,21.02
2022-10-02T16:11:33.617Z,21.03
2022-10-02T16:14:13.386Z,20.64
2022-10-02T16:16:46.444Z,19.88
2022-10-02T16:19:50.928Z,20.19
2022-10-02T16:22:18.153Z,20.39
2022-10-02T16:25:10.348Z,20.47
2022-10-02T16:27:48.372Z,21.50
2022-10-02T16:30:21.415Z,21.18
2022-10-02T16:33:00.572Z,21.22
2022-10-02T16:35:49.157Z,21.05
2022-10-02T16:38:47.606Z,20.62
2022-10-02T16:42:00.669Z,21.51
2022-10-02T16:44:56.070Z,20.97
2022-10-02T16:47:46.871Z,20.59
2022-10-02T16:50:17.111Z,20.62
2022-10-02T16:53:05.980Z,21.14
2022-10-02T16:55:51.593Z,21.47
2022-10-02T16:58:46.367Z,21.90
2022-10-02T17:01:24.176Z,21.86
2022-10-02T17:04:13.913Z,22.44
2022-10-02T17:06:46.910Z,21.99
2022-10-02T17:09:41.215Z,21.91
2022-10-02T17:12:19.614Z,22.26
2022-10-02T17:15:01.081Z,22.38
2022-10-02T17:17:43.091Z,22.98
2022-10-02T17:20:18.149Z,22.71
2022-10-02T17:23:09.364Z,22.32
2022-10-02T17:25:43.908Z,21.73
2022-10-02T17:28:48.727Z,22.22
2022-10-02T17:31:39.260Z,21.58
2022-10-02T17:34:21.371Z,20.61
2022-10-02T17:36:59.661Z,20.93
2022-10-02T17:39:45.273Z,20.61
2022-10-02T17:42:32.952Z,20.14
2022-10-02T17:45:04.316Z,20.33
2022-10-02T17:47:39.680Z,20.32
2022-10-02T17:50:44.389Z,19.78
2022-10-02T17:53:29.749Z,20.29
2022-10-02T17:56:30.811Z,20.14
2022-10-02T17:59:25.892Z,19.84
2022-10-02T18:01:55.492Z,19.46
2022-10-02T18:04:33.483Z,19.59
2022-10-02T18:07:15.646Z,20.12
2022-10-02T18:09:44.512Z,19.03
2022-10-02T18:12:49.298Z,20.22
2022-10-02T18:15:34.400Z,19.96
2022-10-02T18:18:29.085Z,19.72
2022-10-02T18:21:19.479Z,19.62
2022-10-02T18:23:54.239Z,19.21
2022-10-02T18:26:27.093Z,19.52
2022-10-02T18:29:24.316Z,19.48
2022-10-02T18:32:21.387Z,19.10
2022-10-02T18:35:04.341Z,18.41
2022-10-02T18:37:50.363Z,18.46
2022-10-02T18:40:56.927Z,18.64
2022-10-02T18:43:41.808Z,19.08
2022-10-02T18:46:30.562Z,19.27
2022-10-02T18:49:08.024Z,19.71
2022-10-02T18:52:16.038Z,19.55
2022-10-02T18:55:13.480Z,20.06
2022-10-02T18:57:57.667Z,19.87
2022-10-02T19:00:28.260Z,20.31
2022-10-02T19:03:14.858Z,20.16
2022-10-02T19:05:54.576Z,20.38
2022-10-02T19:08:26.695Z,20.36
2022-10-02T19:10:53.609Z,20.33
2022-10-02T19:13:29.994Z,20.00
2022-10-02T19:16:01.453Z,19.75
2022-10-02T19:18:30.435Z,19.65
2022-10-02T19:21:08.442Z,20.02
2022-10-02T19:23:38.359Z,20.06
2022-10-02T19:26:18.193Z,19.41
2022-10-02T19:28:48.280Z,19.00
2022-10-02T19:31:21.196Z,18.75
2022-10-02T19:33:52.982Z,18.62
2022-10-02T19:36:26.032Z,18.64
2022-10-02T19:39:04.929Z,18.37
2022-10-02T19:41:36.254Z,18.29
2022-10-02T19:44:07.271Z,17.54
2022-10-02T19:46:49.870Z,17.63
2022-10-02T19:49:40.730Z,17.15
2022-10-02T19:52:37.352Z,16.99
2022-10-02T19:55:16.886Z,16.74
2022-10-02T19:57:45.452Z,16.69
2022-10-02T20:00:17.532Z,16.93
2022-10-02T20:02:49.148Z,17.02
2022-10-02T20:05:23.375Z,17.03
2022-10-02T20:07:52.652Z,17.19
2022-10-02T20:10:27.815Z,17.53
2022-10-02T20:13:01.397Z,17.43
2022-10-02T20:15:56.375Z,17.62
2022-10-02T20:18:23.554Z,17.34
2022-10-02T20:20:53.046Z,17.27
2022-10-02T20:23:24.964Z,17.08
2022-10-02T20:25:56.620Z,17.31
2022-10-02T20:28:33.681Z,17.65
2022-10-02T20:31:12.318Z,17.57
2022-10-02T20:34:20.893Z,17.89
2022-10-02T20:37:04.052Z,17.32
2022-10-02T20:39:36.122Z,17.80
2022-10-02T20:42:23.095Z,17.83
2022-10-02T20:44:50.859Z,17.31
2022-10-02T20:47:36.954Z,17.52
2022-10-02T20:50:25.861Z,17.66
2022-10-02T20:53:17.602Z,17.55
2022-10-02T20:56:02.276Z,17.35
2022-10-02T20:58:53.181Z,17.78
2022-10-02T21:01:42.397Z,16.75
2022-10-02T21:04:40.226Z,17.32
2022-10-02T21:07:26.085Z,17.35
2022-10-02T21:10:40.492Z,16.98
2022-10-02T21:13:24.405Z,16.94
2022-10-02T21:16:42.321Z,16.99
2022-10-02T21:19:39.992Z,16.53
2022-10-02T21:22:26.852Z,16.85
2022-10-02T21:25:08.990Z,16.63
2022-10-02T21:28:13.584Z,16.89
2022-10-02T21:31:14.680Z,16.53
2022-10-02T21:33:49.963Z,16.81
2022-10-02T21:36:22.963Z,17.19
2022-10-02T21:39:41.172Z,17.04
2022-10-02T21:42:37.150Z,17.09
2022-10-02T21:45:25.695Z,17.53
2022-10-02T21:48:24.412Z,17.29
2022-10-02T21:51:01.717Z,17.26
2022-10-02T21:53:34.384Z,16.60
2022-10-02T21:56:48.527Z,17.13
2022-10-02T21:59:25.228Z,17.22
2022-10-02T22:02:11.669Z,17.05
2022-10-02T22:04:45.723Z,17.02
2022-10-02T22:07:36.752Z,17.21
2022-10-02T22:10:34.602Z,16.96
2022-10-02T22:13:18.375Z,16.76
2022-10-02T22:16:04.380Z,16.87
2022-10-02T22:18:51.266Z,16.74
2022-10-02T22:21:46.030Z,16.52
2022-10-02T22:24:21.565Z,16.85
2022-10-02T22:27:00.404Z,17.10
2022-10-02T22:29:54.326Z,15.87
2022-10-02T22:33:04.833Z,16.22
2022-10-02T22:36:01.992Z,16.55
2022-10-02T22:38:42.366Z,15.74
2022-10-02T22:41:34.334Z,15.57
2022-10-02T22:44:06.227Z,16.18
2022-10-02T22:46:49.890Z,16.24
2022-10-02T22:49:18.915Z,16.03
2022-10-02T22:51:49.987Z,16.26
2022-10-02T22:54:25.805Z,16.27
2022-10-02T22:56:58.321Z,16.23
2022-10-02T22:59:31.809Z,16.70
2022-10-02T23:02:21.218Z,16.17
2022-10-02T23:05:02.081Z,15.94
2022-10-02T23:07:40.703Z,15.77
2022-10-02T23:10:21.453Z,15.59
2022-10-02T23:13:00.150Z,15.75
2022-10-02T23:15:42.029Z,15.44
2022-10-02T23:18:20.859Z,16.14
2022-10-02T23:21:04.714Z,16.10
2022-10-02T23:23:37.200Z,16.15
2022-10-02T23:26:11.336Z,15.99
2022-10-02T23:28:53.359Z,15.82
2022-10-02T23:31:31.467Z,15.66
2022-10-02T23:34:24.233Z,15.68
2022-10-02T23:36:53.199Z,15.80
2022-10-02T23:39:39.661Z,15.82
2022-10-02T23:42:11.080Z,15.61
2022-10-02T23:44:43.323Z,16.18
2022-10-02T23:47:10.220Z,16.03
2022-10-02T23:49:44.159Z,15.99
2022-10-02T23:52:26.253Z,16.08
2022-10-02T23:54:53.057Z,16.36
2022-10-02T23:57:47.876Z,16.19
